Time;durP1;ratioP1;P1;durP2;ratioP2;P2;SDS_P1;SDS_P2;PMS_P1;PMS_P2;Temp;Humidity;BMP_temperature;BMP_pressure;BME280_temperature;BME280_humidity;BME280_pressure;Samples;Min_cycle;Max_cycle;Signal;HPM_P1;HPM_P2
2021/07/30 00:00:42;;;;;;;4.27;3.77;;;;;;;;;;5069384;28;20410;-74
2021/07/30 00:03:08;;;;;;;4.93;3.27;;;;;;;;;;5074542;28;20824;-73
2021/07/30 00:05:34;;;;;;;6.37;3.20;;;;;;;;;;5074540;28;20518;-71
2021/07/30 00:08:00;;;;;;;4.10;3.10;;;;;;;;;;5073449;28;20448;-75
2021/07/30 00:10:26;;;;;;;4.67;3.20;;;;;;;;;;5070522;28;20443;-76
2021/07/30 00:12:55;;;;;;;7.20;3.57;;;;;;;;;;5073217;28;20445;-72
2021/07/30 00:15:22;;;;;;;4.80;3.00;;;;;;;;;;5072806;28;20404;-74
2021/07/30 00:17:48;;;;;;;6.50;3.60;;;;;;;;;;5086566;28;20417;-73
2021/07/30 00:20:14;;;;;;;5.87;3.43;;;;;;;;;;5086567;28;20527;-75
2021/07/30 00:22:40;;;;;;;5.20;3.40;;;;;;;;;;5094570;28;20447;-75
2021/07/30 00:25:06;;;;;;;7.40;3.80;;;;;;;;;;5079182;28;20424;-73
2021/07/30 00:27:33;;;;;;;6.80;3.93;;;;;;;;;;5073728;28;20476;-75
2021/07/30 00:29:58;;;;;;;5.30;3.63;;;;;;;;;;5073496;28;20417;-73
2021/07/30 00:32:24;;;;;;;3.20;2.90;;;;;;;;;;5067241;28;20474;-74
2021/07/30 00:34:50;;;;;;;5.17;3.43;;;;;;;;;;5073844;28;20401;-73
2021/07/30 00:37:16;;;;;;;3.80;3.03;;;;;;;;;;5069483;28;20774;-73
2021/07/30 00:39:42;;;;;;;5.70;3.47;;;;;;;;;;5083798;28;20467;-74
2021/07/30 00:42:09;;;;;;;6.10;3.43;;;;;;;;;;5073913;28;20412;-74
2021/07/30 00:44:35;;;;;;;11.10;3.80;;;;;;;;;;5078092;28;20422;-74
2021/07/30 00:47:02;;;;;;;8.73;3.50;;;;;;;;;;5093681;28;20450;-75
2021/07/30 00:49:28;;;;;;;6.97;3.43;;;;;;;;;;5083430;28;20509;-72
2021/07/30 00:51:54;;;;;;;5.07;3.20;;;;;;;;;;5083617;28;20501;-73
2021/07/30 00:54:20;;;;;;;8.23;3.47;;;;;;;;;;5072795;28;20444;-73
2021/07/30 00:56:47;;;;;;;5.30;3.67;;;;;;;;;;5071972;28;20835;-74
2021/07/30 00:59:13;;;;;;;3.87;3.33;;;;;;;;;;5085393;28;20496;-73
2021/07/30 01:01:39;;;;;;;4.23;3.10;;;;;;;;;;5071915;28;20448;-73
2021/07/30 01:04:05;;;;;;;4.30;3.53;;;;;;;;;;5079251;28;20442;-75
2021/07/30 01:06:32;;;;;;;6.50;3.63;;;;;;;;;;5073149;28;20452;-73
2021/07/30 01:08:58;;;;;;;5.13;3.53;;;;;;;;;;5072597;28;20408;-75
2021/07/30 01:11:24;;;;;;;8.20;3.57;;;;;;;;;;5072898;28;20447;-73
2021/07/30 01:13:50;;;;;;;6.10;3.87;;;;;;;;;;5071477;28;20432;-72
2021/07/30 01:16:16;;;;;;;5.03;3.60;;;;;;;;;;5074114;28;20434;-72
2021/07/30 01:18:42;;;;;;;5.40;3.60;;;;;;;;;;5091459;28;20758;-72
2021/07/30 01:21:08;;;;;;;4.43;3.40;;;;;;;;;;5074995;28;20427;-74
2021/07/30 01:23:34;;;;;;;5.90;3.90;;;;;;;;;;5072875;28;20447;-71
2021/07/30 01:26:00;;;;;;;6.27;3.80;;;;;;;;;;5071688;28;20487;-74
2021/07/30 01:28:31;;;;;;;4.30;3.83;;;;;;;;;;5073179;28;20525;-74
2021/07/30 01:30:57;;;;;;;6.03;3.37;;;;;;;;;;5071553;28;20427;-76
2021/07/30 01:33:23;;;;;;;5.60;3.67;;;;;;;;;;5068979;28;20447;-75
2021/07/30 01:35:49;;;;;;;4.57;3.30;;;;;;;;;;5073340;28;20511;-75
2021/07/30 01:38:16;;;;;;;5.93;3.70;;;;;;;;;;5072984;28;20418;-73
2021/07/30 01:40:42;;;;;;;5.77;3.30;;;;;;;;;;5072392;28;20419;-69
2021/07/30 01:43:08;;;;;;;6.97;3.83;;;;;;;;;;5072953;28;20523;-70
2021/07/30 01:45:34;;;;;;;8.77;3.60;;;;;;;;;;5064124;28;20510;-73
2021/07/30 01:48:00;;;;;;;5.70;3.80;;;;;;;;;;5072214;28;20447;-73
2021/07/30 01:50:26;;;;;;;5.60;4.20;;;;;;;;;;5073042;28;20490;-73
2021/07/30 01:52:52;;;;;;;5.37;3.70;;;;;;;;;;5072306;28;20849;-72
2021/07/30 01:55:18;;;;;;;4.33;3.50;;;;;;;;;;5069102;28;20514;-72
2021/07/30 01:57:44;;;;;;;6.77;4.03;;;;;;;;;;5076282;28;20411;-74
2021/07/30 02:00:10;;;;;;;7.20;4.20;;;;;;;;;;5071558;28;20820;-73
2021/07/30 02:02:36;;;;;;;8.57;4.13;;;;;;;;;;5074056;28;20796;-74
2021/07/30 02:05:05;;;;;;;7.67;3.47;;;;;;;;;;5070364;28;20439;-72
2021/07/30 02:07:31;;;;;;;5.03;3.93;;;;;;;;;;5075696;28;20799;-71
2021/07/30 02:09:58;;;;;;;6.03;4.27;;;;;;;;;;5076285;28;20427;-72
2021/07/30 02:12:24;;;;;;;5.17;3.80;;;;;;;;;;5076688;28;20430;-73
2021/07/30 02:14:50;;;;;;;5.77;3.90;;;;;;;;;;5088192;28;20543;-74
2021/07/30 02:17:16;;;;;;;6.10;3.50;;;;;;;;;;5073593;28;20509;-75
2021/07/30 02:19:42;;;;;;;8.90;4.30;;;;;;;;;;5075907;28;20421;-75
2021/07/30 02:22:08;;;;;;;5.57;3.70;;;;;;;;;;5081544;28;21973;-73
2021/07/30 02:24:34;;;;;;;9.17;4.00;;;;;;;;;;5075492;28;20412;-75
2021/07/30 02:27:00;;;;;;;6.30;4.10;;;;;;;;;;5075423;28;20497;-74
2021/07/30 02:29:26;;;;;;;8.13;4.23;;;;;;;;;;5076291;28;20498;-75
2021/07/30 02:31:52;;;;;;;4.50;3.77;;;;;;;;;;5075997;28;20455;-74
2021/07/30 02:34:18;;;;;;;5.90;4.10;;;;;;;;;;5070734;28;20434;-75
2021/07/30 02:36:44;;;;;;;5.33;4.20;;;;;;;;;;5096268;28;20419;-74
2021/07/30 02:39:10;;;;;;;4.83;4.00;;;;;;;;;;5094251;28;20423;-72
2021/07/30 02:41:36;;;;;;;6.40;4.27;;;;;;;;;;5096651;28;20411;-73
2021/07/30 02:44:03;;;;;;;4.30;3.90;;;;;;;;;;5087980;28;20445;-72
2021/07/30 02:46:29;;;;;;;8.40;4.40;;;;;;;;;;5079027;28;20438;-74
2021/07/30 02:48:55;;;;;;;5.67;4.10;;;;;;;;;;5087607;28;20417;-75
2021/07/30 02:51:21;;;;;;;4.70;4.13;;;;;;;;;;5082714;28;20415;-75
2021/07/30 02:53:47;;;;;;;5.23;3.93;;;;;;;;;;5075465;28;20495;-75
2021/07/30 02:56:13;;;;;;;5.13;4.10;;;;;;;;;;5075092;28;20485;-73
2021/07/30 02:58:39;;;;;;;8.40;4.47;;;;;;;;;;5075219;28;20423;-72
2021/07/30 03:01:05;;;;;;;8.00;4.47;;;;;;;;;;5071369;28;20885;-75
2021/07/30 03:03:31;;;;;;;5.37;4.23;;;;;;;;;;5075767;28;20438;-73
2021/07/30 03:05:58;;;;;;;5.93;4.70;;;;;;;;;;5075698;28;20427;-74
2021/07/30 03:08:25;;;;;;;5.93;4.37;;;;;;;;;;5094390;28;20973;-74
2021/07/30 03:10:51;;;;;;;6.33;4.60;;;;;;;;;;5085850;28;20769;-72
2021/07/30 03:13:17;;;;;;;5.70;4.13;;;;;;;;;;5078973;28;20442;-75
2021/07/30 03:15:43;;;;;;;7.20;3.97;;;;;;;;;;5075426;28;20481;-73
2021/07/30 03:18:09;;;;;;;7.73;4.33;;;;;;;;;;5091762;28;20422;-73
2021/07/30 03:20:35;;;;;;;8.60;4.30;;;;;;;;;;5082046;28;20430;-71
2021/07/30 03:23:01;;;;;;;7.67;4.20;;;;;;;;;;5071445;28;20510;-72
2021/07/30 03:25:27;;;;;;;6.83;4.43;;;;;;;;;;5080139;28;20410;-72
2021/07/30 03:27:53;;;;;;;7.90;4.68;;;;;;;;;;5075360;28;20461;-71
2021/07/30 03:30:19;;;;;;;4.90;3.97;;;;;;;;;;5084468;28;20168;-73
2021/07/30 03:32:45;;;;;;;6.93;4.27;;;;;;;;;;5067213;28;20443;-72
2021/07/30 03:35:11;;;;;;;6.70;4.60;;;;;;;;;;5075729;28;20442;-74
2021/07/30 03:37:37;;;;;;;6.80;4.90;;;;;;;;;;5074231;28;20422;-74
2021/07/30 03:40:04;;;;;;;6.60;4.67;;;;;;;;;;5078491;28;20968;-72
2021/07/30 03:42:30;;;;;;;6.43;4.67;;;;;;;;;;5070490;28;20443;-70
2021/07/30 03:44:56;;;;;;;8.07;5.10;;;;;;;;;;5060947;28;20773;-73
2021/07/30 03:47:22;;;;;;;7.57;5.00;;;;;;;;;;5065138;28;20560;-73
2021/07/30 03:49:48;;;;;;;6.40;5.77;;;;;;;;;;5078673;28;20420;-72
2021/07/30 03:52:17;;;;;;;7.13;4.70;;;;;;;;;;5071241;28;20911;-72
2021/07/30 03:54:43;;;;;;;5.17;4.60;;;;;;;;;;5089701;28;20778;-74
2021/07/30 03:57:09;;;;;;;8.67;5.10;;;;;;;;;;5076656;28;20509;-72
2021/07/30 03:59:35;;;;;;;7.73;5.43;;;;;;;;;;5074962;28;20442;-74
2021/07/30 04:02:01;;;;;;;10.23;5.63;;;;;;;;;;5066986;28;20419;-75
2021/07/30 04:04:27;;;;;;;7.85;4.93;;;;;;;;;;5069379;28;20804;-75
2021/07/30 04:06:53;;;;;;;11.10;5.27;;;;;;;;;;5074489;28;20204;-72
2021/07/30 04:09:21;;;;;;;6.20;4.97;;;;;;;;;;5067618;28;20411;-74
2021/07/30 04:11:47;;;;;;;5.97;4.90;;;;;;;;;;5083640;28;20520;-71
2021/07/30 04:14:13;;;;;;;9.70;5.63;;;;;;;;;;5081254;28;20442;-72
2021/07/30 04:16:39;;;;;;;6.20;5.17;;;;;;;;;;5082752;28;20455;-72
2021/07/30 04:19:06;;;;;;;9.50;4.80;;;;;;;;;;5073710;28;20844;-73
2021/07/30 04:21:31;;;;;;;8.73;5.47;;;;;;;;;;5077509;28;20460;-74
2021/07/30 04:24:00;;;;;;;9.63;5.30;;;;;;;;;;5089056;28;20452;-72
2021/07/30 04:26:26;;;;;;;8.20;6.00;;;;;;;;;;5092107;28;20417;-73
2021/07/30 04:28:52;;;;;;;8.40;5.10;;;;;;;;;;5086218;28;20407;-74
2021/07/30 04:31:18;;;;;;;9.07;5.70;;;;;;;;;;5073532;28;20429;-72
2021/07/30 04:33:44;;;;;;;7.00;5.27;;;;;;;;;;5064523;28;20430;-73
2021/07/30 04:36:17;;;;;;;7.53;5.70;;;;;;;;;;5074176;28;20402;-71
2021/07/30 04:38:44;;;;;;;6.20;5.60;;;;;;;;;;5073550;28;20414;-71
2021/07/30 04:41:10;;;;;;;8.50;5.73;;;;;;;;;;5073668;28;20519;-71
2021/07/30 04:43:36;;;;;;;8.82;5.60;;;;;;;;;;5073997;28;20434;-72
2021/07/30 04:46:02;;;;;;;6.00;5.40;;;;;;;;;;5069601;28;20181;-71
2021/07/30 04:48:28;;;;;;;8.93;5.90;;;;;;;;;;5083728;28;20515;-71
2021/07/30 04:50:54;;;;;;;10.47;5.40;;;;;;;;;;5087613;28;20422;-75
2021/07/30 04:53:21;;;;;;;9.60;5.33;;;;;;;;;;5082456;28;20909;-74
2021/07/30 04:55:46;;;;;;;8.03;6.50;;;;;;;;;;5071351;28;20927;-74
2021/07/30 04:58:12;;;;;;;7.90;5.70;;;;;;;;;;5073154;28;20433;-71
2021/07/30 05:00:38;;;;;;;10.10;7.30;;;;;;;;;;5073076;28;20448;-71
2021/07/30 05:03:04;;;;;;;9.40;6.90;;;;;;;;;;5062302;28;20484;-72
2021/07/30 05:05:31;;;;;;;12.97;7.00;;;;;;;;;;5070085;28;20505;-70
2021/07/30 05:07:57;;;;;;;7.50;5.80;;;;;;;;;;5073405;28;20454;-72
2021/07/30 05:10:23;;;;;;;27.43;6.93;;;;;;;;;;5073491;28;20423;-74
2021/07/30 05:12:49;;;;;;;10.93;5.90;;;;;;;;;;5073125;28;20503;-74
2021/07/30 05:15:15;;;;;;;8.00;6.07;;;;;;;;;;5073668;28;20410;-73
2021/07/30 05:17:41;;;;;;;7.93;6.23;;;;;;;;;;5072809;28;20427;-72
2021/07/30 05:20:08;;;;;;;11.67;7.50;;;;;;;;;;5077892;28;20467;-72
2021/07/30 05:22:34;;;;;;;7.53;5.80;;;;;;;;;;5091063;28;20456;-71
2021/07/30 05:25:00;;;;;;;7.57;6.40;;;;;;;;;;5088401;28;20426;-72
2021/07/30 05:27:26;;;;;;;9.63;6.30;;;;;;;;;;5097647;28;20984;-72
2021/07/30 05:29:52;;;;;;;8.23;6.47;;;;;;;;;;5087701;28;20410;-72
2021/07/30 05:32:18;;;;;;;11.03;6.57;;;;;;;;;;5067798;28;20439;-75
2021/07/30 05:34:44;;;;;;;7.27;6.43;;;;;;;;;;5069649;28;20410;-72
2021/07/30 05:37:11;;;;;;;8.93;6.17;;;;;;;;;;5070186;28;20744;-73
2021/07/30 05:39:37;;;;;;;10.03;7.13;;;;;;;;;;5074979;28;20417;-71
2021/07/30 05:42:04;;;;;;;6.60;5.90;;;;;;;;;;5079907;28;20411;-74
2021/07/30 05:44:30;;;;;;;10.30;6.50;;;;;;;;;;5084206;28;20417;-73
2021/07/30 05:46:56;;;;;;;9.17;6.33;;;;;;;;;;5076982;28;20460;-71
2021/07/30 05:49:22;;;;;;;11.73;7.27;;;;;;;;;;5070460;28;20420;-72
2021/07/30 05:51:48;;;;;;;10.27;6.03;;;;;;;;;;5080191;28;20424;-73
2021/07/30 05:54:14;;;;;;;7.77;6.30;;;;;;;;;;5076399;28;20459;-73
2021/07/30 05:56:40;;;;;;;9.57;7.20;;;;;;;;;;5072511;28;20984;-71
2021/07/30 05:59:06;;;;;;;9.83;6.77;;;;;;;;;;5074560;28;20430;-73
2021/07/30 06:01:32;;;;;;;11.10;6.73;;;;;;;;;;5073668;28;20830;-71
2021/07/30 06:03:57;;;;;;;16.23;7.07;;;;;;;;;;5063567;28;20490;-74
2021/07/30 06:06:23;;;;;;;9.03;6.73;;;;;;;;;;5071141;28;20432;-72
2021/07/30 06:08:49;;;;;;;9.83;7.43;;;;;;;;;;5072868;28;20757;-71
2021/07/30 06:11:15;;;;;;;9.67;6.73;;;;;;;;;;5072755;28;20451;-74
2021/07/30 06:13:41;;;;;;;9.80;7.97;;;;;;;;;;5072964;28;20984;-73
2021/07/30 06:16:11;;;;;;;8.27;6.63;;;;;;;;;;5072772;28;20421;-72
2021/07/30 06:18:38;;;;;;;12.67;8.03;;;;;;;;;;5071359;28;20434;-73
2021/07/30 06:21:05;;;;;;;11.23;7.20;;;;;;;;;;5088688;28;20501;-72
2021/07/30 06:23:31;;;;;;;12.70;7.20;;;;;;;;;;5082715;28;20527;-73
2021/07/30 06:25:57;;;;;;;10.03;6.50;;;;;;;;;;5072642;28;20910;-74
2021/07/30 06:28:23;;;;;;;12.47;7.40;;;;;;;;;;5072565;28;20795;-71
2021/07/30 06:30:49;;;;;;;9.67;7.50;;;;;;;;;;5086794;28;20490;-73
2021/07/30 06:33:18;;;;;;;11.47;7.83;;;;;;;;;;5082304;28;20420;-71
2021/07/30 06:35:44;;;;;;;9.93;7.03;;;;;;;;;;5085332;28;20414;-73
2021/07/30 06:38:10;;;;;;;10.97;6.67;;;;;;;;;;5072380;28;20425;-72
2021/07/30 06:40:36;;;;;;;9.43;6.43;;;;;;;;;;5072738;28;20425;-71
2021/07/30 06:43:02;;;;;;;13.40;7.53;;;;;;;;;;5082147;28;20436;-73
2021/07/30 06:45:28;;;;;;;9.80;6.93;;;;;;;;;;5082894;28;20426;-75
2021/07/30 06:47:54;;;;;;;9.20;8.10;;;;;;;;;;5068167;28;20446;-70
2021/07/30 06:50:20;;;;;;;10.27;6.80;;;;;;;;;;5080298;28;20418;-75
2021/07/30 06:52:46;;;;;;;12.47;7.73;;;;;;;;;;5071317;28;20461;-75
2021/07/30 06:55:12;;;;;;;9.83;7.63;;;;;;;;;;5064831;28;20440;-75
2021/07/30 06:57:38;;;;;;;12.97;7.57;;;;;;;;;;5079139;28;20409;-73
2021/07/30 07:00:04;;;;;;;10.80;7.43;;;;;;;;;;5076215;28;20449;-72
2021/07/30 07:02:30;;;;;;;13.50;8.10;;;;;;;;;;5083053;28;20538;-74
2021/07/30 07:04:56;;;;;;;10.50;7.50;;;;;;;;;;5080613;28;20468;-74
2021/07/30 07:07:22;;;;;;;11.23;7.70;;;;;;;;;;5082937;28;20485;-73
2021/07/30 07:09:48;;;;;;;13.13;7.50;;;;;;;;;;5073744;28;20422;-72
2021/07/30 07:12:14;;;;;;;12.63;7.00;;;;;;;;;;5084245;28;20467;-74
2021/07/30 07:14:40;;;;;;;9.90;7.30;;;;;;;;;;5071159;28;20430;-71
2021/07/30 07:17:06;;;;;;;14.23;7.90;;;;;;;;;;5073816;28;20899;-71
2021/07/30 07:19:32;;;;;;;10.67;6.77;;;;;;;;;;5071176;28;20547;-71
2021/07/30 07:21:59;;;;;;;11.00;7.03;;;;;;;;;;5071624;28;20841;-71
2021/07/30 07:24:25;;;;;;;12.13;7.50;;;;;;;;;;5071523;28;20480;-72
2021/07/30 07:26:50;;;;;;;10.67;7.30;;;;;;;;;;5071356;28;20500;-74
2021/07/30 07:29:16;;;;;;;10.50;7.93;;;;;;;;;;5073321;28;20536;-74
2021/07/30 07:31:45;;;;;;;10.70;6.90;;;;;;;;;;5080272;28;20419;-72
2021/07/30 07:34:11;;;;;;;11.73;7.57;;;;;;;;;;5072715;28;20540;-71
2021/07/30 07:36:37;;;;;;;9.77;7.00;;;;;;;;;;5071115;28;20451;-71
2021/07/30 07:39:03;;;;;;;9.13;6.90;;;;;;;;;;5074547;28;20446;-71
2021/07/30 07:41:30;;;;;;;9.23;6.63;;;;;;;;;;5080194;28;20417;-72
2021/07/30 07:43:56;;;;;;;12.03;6.90;;;;;;;;;;5071240;28;20439;-75
2021/07/30 07:46:22;;;;;;;7.87;6.70;;;;;;;;;;5078834;28;20453;-74
2021/07/30 07:48:48;;;;;;;8.87;6.83;;;;;;;;;;5070747;28;20439;-74
2021/07/30 07:51:14;;;;;;;8.87;6.80;;;;;;;;;;5066912;28;20458;-71
2021/07/30 07:53:40;;;;;;;11.07;7.20;;;;;;;;;;5084751;28;20536;-72
2021/07/30 07:56:07;;;;;;;13.83;7.20;;;;;;;;;;5071119;28;20430;-74
2021/07/30 07:58:33;;;;;;;7.47;6.47;;;;;;;;;;5074909;28;20446;-74
2021/07/30 08:01:00;;;;;;;8.50;7.40;;;;;;;;;;5070792;28;20419;-73
2021/07/30 08:03:26;;;;;;;10.87;6.70;;;;;;;;;;5073367;28;20526;-74
2021/07/30 08:05:52;;;;;;;9.13;6.50;;;;;;;;;;5070409;28;20743;-70
2021/07/30 08:08:19;;;;;;;10.70;6.00;;;;;;;;;;5074844;28;20469;-72
2021/07/30 08:10:45;;;;;;;11.20;6.53;;;;;;;;;;5089846;28;20413;-71
2021/07/30 08:13:12;;;;;;;9.93;6.27;;;;;;;;;;5084610;28;20831;-74
2021/07/30 08:15:41;;;;;;;10.63;5.80;;;;;;;;;;5070968;28;20817;-73
2021/07/30 08:18:07;;;;;;;7.50;6.70;;;;;;;;;;5070441;28;20457;-72
2021/07/30 08:20:33;;;;;;;8.10;5.90;;;;;;;;;;5070619;28;20475;-72
2021/07/30 08:22:59;;;;;;;13.63;6.63;;;;;;;;;;5070329;28;20442;-72
2021/07/30 08:25:25;;;;;;;7.10;5.73;;;;;;;;;;5069950;28;20422;-73
2021/07/30 08:27:51;;;;;;;10.37;6.47;;;;;;;;;;5085497;28;20461;-73
2021/07/30 08:30:17;;;;;;;6.90;6.20;;;;;;;;;;5079613;28;20479;-75
2021/07/30 08:32:43;;;;;;;9.37;5.70;;;;;;;;;;5070147;28;20495;-72
2021/07/30 08:35:09;;;;;;;7.80;6.30;;;;;;;;;;5070073;28;20470;-71
2021/07/30 08:37:35;;;;;;;7.93;6.13;;;;;;;;;;5068299;28;20418;-72
2021/07/30 08:40:02;;;;;;;6.00;5.40;;;;;;;;;;5070674;28;20410;-73
2021/07/30 08:42:28;;;;;;;7.93;5.93;;;;;;;;;;5075203;28;20532;-76
2021/07/30 08:44:54;;;;;;;10.33;5.40;;;;;;;;;;5087648;28;20417;-72
2021/07/30 08:47:21;;;;;;;8.83;5.67;;;;;;;;;;5070456;28;20468;-76
2021/07/30 08:49:47;;;;;;;8.80;5.97;;;;;;;;;;5074993;28;20434;-73
2021/07/30 08:52:14;;;;;;;7.23;5.53;;;;;;;;;;5069451;28;20426;-72
2021/07/30 08:54:40;;;;;;;7.73;5.70;;;;;;;;;;5069941;28;20460;-72
2021/07/30 08:57:13;;;;;;;8.10;5.83;;;;;;;;;;5074694;28;20431;-74
2021/07/30 08:59:39;;;;;;;9.13;5.53;;;;;;;;;;5090119;28;20424;-72
2021/07/30 09:02:06;;;;;;;11.23;6.13;;;;;;;;;;5077692;28;20456;-74
2021/07/30 09:04:32;;;;;;;8.23;6.07;;;;;;;;;;5074385;28;20453;-73
2021/07/30 09:07:02;;;;;;;5.63;5.07;;;;;;;;;;5055865;28;20954;-73
2021/07/30 09:09:30;;;;;;;5.93;4.10;;;;;;;;;;5069279;28;20433;-73
2021/07/30 09:12:00;;;;;;;5.30;3.90;;;;;;;;;;5069602;28;20414;-73
2021/07/30 09:14:37;;;;;;;4.17;3.77;;;;;;;;;;5067366;28;20428;-73
2021/07/30 09:17:03;;;;;;;4.60;4.10;;;;;;;;;;5069479;28;20410;-73
2021/07/30 09:19:29;;;;;;;4.43;4.03;;;;;;;;;;5072577;28;20451;-72
2021/07/30 09:22:09;;;;;;;6.73;4.30;;;;;;;;;;5085402;28;20859;-74
2021/07/30 09:24:39;;;;;;;4.73;4.00;;;;;;;;;;5077976;28;20417;-71
2021/07/30 09:27:07;;;;;;;4.67;4.10;;;;;;;;;;5067760;28;20556;-72
2021/07/30 09:29:33;;;;;;;7.77;4.20;;;;;;;;;;5069132;28;20415;-74
2021/07/30 09:31:59;;;;;;;4.40;3.90;;;;;;;;;;5069254;28;20464;-73
2021/07/30 09:34:28;;;;;;;7.83;4.83;;;;;;;;;;5069129;28;20426;-71
2021/07/30 09:36:54;;;;;;;6.83;4.73;;;;;;;;;;5068780;28;20415;-71
2021/07/30 09:39:22;;;;;;;6.23;4.67;;;;;;;;;;5069089;28;20426;-73
2021/07/30 09:42:03;;;;;;;4.53;4.10;;;;;;;;;;5069143;28;20419;-74
2021/07/30 09:44:30;;;;;;;6.23;4.40;;;;;;;;;;5071014;28;20797;-71
2021/07/30 09:47:07;;;;;;;4.83;4.10;;;;;;;;;;5068748;28;20463;-74
2021/07/30 09:49:40;;;;;;;4.43;3.90;;;;;;;;;;5063880;28;20431;-76
2021/07/30 09:52:10;;;;;;;5.77;3.67;;;;;;;;;;5070959;28;20860;-74
2021/07/30 09:54:36;;;;;;;3.93;3.30;;;;;;;;;;5084232;28;20417;-73
2021/07/30 09:57:03;;;;;;;7.00;4.47;;;;;;;;;;5078317;28;20458;-74
2021/07/30 09:59:31;;;;;;;7.43;4.33;;;;;;;;;;5069044;28;20419;-72
2021/07/30 10:01:57;;;;;;;6.10;3.80;;;;;;;;;;5068835;28;20434;-71
2021/07/30 10:04:25;;;;;;;4.63;3.47;;;;;;;;;;5068968;28;20434;-74
2021/07/30 10:06:51;;;;;;;4.90;3.57;;;;;;;;;;5068312;28;20507;-73
2021/07/30 10:09:18;;;;;;;4.30;3.80;;;;;;;;;;5069043;28;20977;-73
2021/07/30 10:11:44;;;;;;;3.60;3.10;;;;;;;;;;5074219;28;20787;-75
2021/07/30 10:14:12;;;;;;;3.77;3.10;;;;;;;;;;5089229;28;21247;-71
2021/07/30 10:16:42;;;;;;;4.63;3.50;;;;;;;;;;5070817;28;20426;-70
2021/07/30 10:19:09;;;;;;;4.47;3.00;;;;;;;;;;5082281;28;20536;-71
2021/07/30 10:21:35;;;;;;;3.60;3.00;;;;;;;;;;5078072;28;20788;-73
2021/07/30 10:24:02;;;;;;;4.20;3.07;;;;;;;;;;5070921;28;20496;-72
2021/07/30 10:26:29;;;;;;;4.17;3.30;;;;;;;;;;5072643;28;20442;-73
2021/07/30 10:29:02;;;;;;;4.40;3.07;;;;;;;;;;5071142;28;20497;-72
2021/07/30 10:31:55;;;;;;;3.57;3.00;;;;;;;;;;5072819;28;20485;-72
2021/07/30 10:34:39;;;;;;;3.80;3.50;;;;;;;;;;5059948;28;20474;-74
2021/07/30 10:37:25;;;;;;;4.20;3.40;;;;;;;;;;5072079;28;20425;-75
2021/07/30 10:40:10;;;;;;;4.40;2.90;;;;;;;;;;5072262;28;20426;-73
2021/07/30 10:42:36;;;;;;;3.67;2.80;;;;;;;;;;5072454;28;20434;-72
2021/07/30 10:45:17;;;;;;;4.73;3.07;;;;;;;;;;5073766;28;20505;-71
2021/07/30 10:47:44;;;;;;;4.33;3.00;;;;;;;;;;5092248;28;20475;-74
2021/07/30 10:50:32;;;;;;;3.70;3.10;;;;;;;;;;5075934;28;20454;-72
2021/07/30 10:53:18;;;;;;;3.83;2.83;;;;;;;;;;5081473;28;20520;-73
2021/07/30 10:55:45;;;;;;;5.30;3.57;;;;;;;;;;5072095;28;20945;-73
2021/07/30 10:58:11;;;;;;;4.00;3.53;;;;;;;;;;5088705;28;20414;-73
2021/07/30 11:00:55;;;;;;;4.00;3.20;;;;;;;;;;5083004;28;20533;-71
2021/07/30 11:03:21;;;;;;;5.33;3.50;;;;;;;;;;5070890;28;21257;-72
2021/07/30 11:06:05;;;;;;;3.67;3.27;;;;;;;;;;5071915;28;21214;-70
2021/07/30 11:08:31;;;;;;;3.63;2.50;;;;;;;;;;5071249;28;20461;-70
2021/07/30 11:11:09;;;;;;;4.30;2.83;;;;;;;;;;5071847;28;20473;-72
2021/07/30 11:13:36;;;;;;;3.40;3.00;;;;;;;;;;5071503;28;20480;-72
2021/07/30 11:16:08;;;;;;;3.83;3.27;;;;;;;;;;5071910;28;20783;-73
2021/07/30 11:18:39;;;;;;;3.13;2.83;;;;;;;;;;5071077;28;20926;-74
2021/07/30 11:21:04;;;;;;;5.13;3.90;;;;;;;;;;5083615;28;20409;-74
2021/07/30 11:23:31;;;;;;;4.50;3.23;;;;;;;;;;5074343;28;20864;-73
2021/07/30 11:26:04;;;;;;;4.03;3.07;;;;;;;;;;5086071;28;20781;-74
2021/07/30 11:28:30;;;;;;;10.17;9.17;;;;;;;;;;5071202;28;20468;-74
2021/07/30 11:30:56;;;;;;;4.50;3.50;;;;;;;;;;5071165;28;20895;-74
2021/07/30 11:33:22;;;;;;;4.00;3.30;;;;;;;;;;5071440;28;20468;-72
2021/07/30 11:35:48;;;;;;;3.60;3.07;;;;;;;;;;5070127;28;20428;-74
2021/07/30 11:38:14;;;;;;;3.87;2.97;;;;;;;;;;5069810;28;20426;-75
2021/07/30 11:40:40;;;;;;;3.87;3.03;;;;;;;;;;5071413;28;20446;-73
2021/07/30 11:43:07;;;;;;;3.37;2.67;;;;;;;;;;5071495;28;20439;-74
2021/07/30 11:45:33;;;;;;;3.87;3.00;;;;;;;;;;5071169;28;20449;-73
2021/07/30 11:47:59;;;;;;;3.33;3.03;;;;;;;;;;5070654;28;20557;-72
2021/07/30 11:50:27;;;;;;;5.10;3.50;;;;;;;;;;5070973;28;20462;-74
2021/07/30 11:53:03;;;;;;;4.10;3.30;;;;;;;;;;5069581;28;20465;-74
2021/07/30 11:55:29;;;;;;;4.40;3.33;;;;;;;;;;5081796;28;20426;-72
2021/07/30 11:57:55;;;;;;;4.73;3.27;;;;;;;;;;5078970;28;20414;-73
2021/07/30 12:00:25;;;;;;;4.90;3.17;;;;;;;;;;5082835;28;20474;-73
2021/07/30 12:02:52;;;;;;;4.63;3.00;;;;;;;;;;5070988;28;20435;-71
2021/07/30 12:05:18;;;;;;;3.17;2.77;;;;;;;;;;5070793;28;20442;-74
2021/07/30 12:07:44;;;;;;;4.20;3.27;;;;;;;;;;5068796;28;20454;-73
2021/07/30 12:10:14;;;;;;;3.27;2.97;;;;;;;;;;5066147;28;20425;-74
2021/07/30 12:12:41;;;;;;;3.50;2.70;;;;;;;;;;5069525;28;20454;-73
2021/07/30 12:15:08;;;;;;;5.40;2.90;;;;;;;;;;5070362;28;20446;-74
2021/07/30 12:17:34;;;;;;;3.40;3.10;;;;;;;;;;5070075;28;20440;-72
2021/07/30 12:20:02;;;;;;;3.33;2.90;;;;;;;;;;5085081;28;20425;-71
2021/07/30 12:22:35;;;;;;;3.40;3.07;;;;;;;;;;5069963;28;20469;-75
2021/07/30 12:25:01;;;;;;;4.40;2.90;;;;;;;;;;5086448;28;20917;-73
2021/07/30 12:27:27;;;;;;;3.10;2.80;;;;;;;;;;5077731;28;21244;-72
2021/07/30 12:29:53;;;;;;;2.97;2.60;;;;;;;;;;5070178;28;20414;-74
2021/07/30 12:32:23;;;;;;;3.33;3.03;;;;;;;;;;5070379;28;20914;-74
2021/07/30 12:35:08;;;;;;;3.63;2.90;;;;;;;;;;5070069;28;20411;-71
2021/07/30 12:37:35;;;;;;;3.80;3.23;;;;;;;;;;5063843;28;21216;-71
2021/07/30 12:40:03;;;;;;;4.73;3.17;;;;;;;;;;5070684;28;20517;-74
2021/07/30 12:42:30;;;;;;;3.37;3.07;;;;;;;;;;5064419;28;20470;-72
2021/07/30 12:45:06;;;;;;;3.63;3.17;;;;;;;;;;5069897;28;20935;-73
2021/07/30 12:47:34;;;;;;;3.53;3.13;;;;;;;;;;5069649;28;20465;-72
2021/07/30 12:50:00;;;;;;;3.67;3.23;;;;;;;;;;5077588;28;20808;-72
2021/07/30 12:52:27;;;;;;;4.10;2.93;;;;;;;;;;5074884;28;20868;-75
2021/07/30 12:55:04;;;;;;;4.10;3.07;;;;;;;;;;5078970;28;20464;-73
2021/07/30 12:57:50;;;;;;;4.37;3.50;;;;;;;;;;5073763;28;20432;-73
2021/07/30 13:00:16;;;;;;;6.00;3.60;;;;;;;;;;5084374;28;20796;-74
2021/07/30 13:02:45;;;;;;;3.77;3.13;;;;;;;;;;5079080;28;20430;-75
2021/07/30 13:05:13;;;;;;;4.77;3.60;;;;;;;;;;5069592;28;20863;-73
2021/07/30 13:07:39;;;;;;;4.10;3.00;;;;;;;;;;5069275;28;20464;-71
2021/07/30 13:10:06;;;;;;;4.10;3.03;;;;;;;;;;5069604;28;20410;-72
2021/07/30 13:12:34;;;;;;;4.70;3.47;;;;;;;;;;5069486;28;20445;-72
2021/07/30 13:15:00;;;;;;;21.57;5.30;;;;;;;;;;5069504;28;20421;-71
2021/07/30 13:17:27;;;;;;;4.83;3.50;;;;;;;;;;5069020;28;20933;-73
2021/07/30 13:19:53;;;;;;;18.40;4.43;;;;;;;;;;5069196;28;20963;-73
2021/07/30 13:22:19;;;;;;;7.30;3.97;;;;;;;;;;5069005;28;20450;-71
2021/07/30 13:24:45;;;;;;;4.43;3.30;;;;;;;;;;5069418;28;20442;-74
2021/07/30 13:27:11;;;;;;;4.80;3.53;;;;;;;;;;5068904;28;20860;-71
2021/07/30 13:29:37;;;;;;;7.10;4.20;;;;;;;;;;5069298;28;20475;-74
2021/07/30 13:32:03;;;;;;;7.53;4.13;;;;;;;;;;5068912;28;20418;-74
2021/07/30 13:34:29;;;;;;;3.67;3.27;;;;;;;;;;5069134;28;20464;-71
2021/07/30 13:36:55;;;;;;;4.97;3.27;;;;;;;;;;5069244;28;20446;-75
2021/07/30 13:39:21;;;;;;;4.13;3.40;;;;;;;;;;5069069;28;20846;-74
2021/07/30 13:41:47;;;;;;;3.70;3.33;;;;;;;;;;5069295;28;20414;-72
2021/07/30 13:44:13;;;;;;;5.50;3.63;;;;;;;;;;5083932;28;20441;-71
2021/07/30 13:46:39;;;;;;;3.43;2.90;;;;;;;;;;5068736;28;20426;-74
2021/07/30 13:49:05;;;;;;;3.43;3.03;;;;;;;;;;5069370;28;20753;-73
2021/07/30 13:51:31;;;;;;;4.30;3.07;;;;;;;;;;5068877;28;20479;-73
2021/07/30 13:53:57;;;;;;;3.50;3.10;;;;;;;;;;5069178;28;20461;-75
2021/07/30 13:56:23;;;;;;;4.00;3.60;;;;;;;;;;5069121;28;20450;-75
2021/07/30 13:58:49;;;;;;;3.90;3.50;;;;;;;;;;5071328;28;20442;-73
2021/07/30 14:01:19;;;;;;;4.70;3.40;;;;;;;;;;5073250;28;20852;-73
2021/07/30 14:03:45;;;;;;;7.27;3.50;;;;;;;;;;5073077;28;20444;-75
2021/07/30 14:06:11;;;;;;;8.00;3.50;;;;;;;;;;5073189;28;20437;-74
2021/07/30 14:08:37;;;;;;;6.10;5.50;;;;;;;;;;5072228;28;20869;-75
2021/07/30 14:11:03;;;;;;;4.90;4.30;;;;;;;;;;5080908;28;20528;-74
2021/07/30 14:13:29;;;;;;;8.37;3.63;;;;;;;;;;5093258;28;20562;-72
2021/07/30 14:15:55;;;;;;;4.83;3.43;;;;;;;;;;5084654;28;20822;-73
2021/07/30 14:18:21;;;;;;;5.47;2.90;;;;;;;;;;5087764;28;20441;-76
2021/07/30 14:20:47;;;;;;;3.50;2.83;;;;;;;;;;5086078;28;20853;-72
2021/07/30 14:23:13;;;;;;;3.40;3.10;;;;;;;;;;5068616;28;20450;-71
2021/07/30 14:25:39;;;;;;;3.87;3.50;;;;;;;;;;5072630;28;20475;-76
2021/07/30 14:28:06;;;;;;;4.90;4.20;;;;;;;;;;5072259;28;20484;-72
2021/07/30 14:30:34;;;;;;;3.73;3.20;;;;;;;;;;5072381;28;20426;-73
2021/07/30 14:33:00;;;;;;;4.53;3.47;;;;;;;;;;5072654;28;20465;-76
2021/07/30 14:35:26;;;;;;;3.40;3.10;;;;;;;;;;5071987;28;20420;-73
2021/07/30 14:37:52;;;;;;;5.03;3.50;;;;;;;;;;5072092;28;20422;-74
2021/07/30 14:40:18;;;;;;;4.17;3.70;;;;;;;;;;5072531;28;20783;-74